Time;durP1;ratioP1;P1;durP2;ratioP2;P2;SDS_P1;SDS_P2;PMS_P1;PMS_P2;Temp;Humidity;BMP_temperature;BMP_pressure;BME280_temperature;BME280_humidity;BME280_pressure;Samples;Min_cycle;Max_cycle;Signal;HPM_P1;HPM_P2
2022/02/02 00:01:01;;;;;;;42.65;6.55;;;8.60;86.40;;;;;;9174708;19;20479;-68
2022/02/02 00:04:09;;;;;;;33.28;6.40;;;8.60;86.40;;;;;;9174968;19;20044;-68
2022/02/02 00:07:28;;;;;;;39.88;7.90;;;8.60;86.40;;;;;;9177808;19;20014;-67
2022/02/02 00:10:59;;;;;;;34.08;5.95;;;8.60;86.40;;;;;;9174562;19;20011;-67
2022/02/02 00:14:16;;;;;;;36.95;6.10;;;8.50;86.40;;;;;;9176539;19;20021;-67
2022/02/02 00:17:43;;;;;;;31.52;6.15;;;8.50;86.40;;;;;;9173170;19;20729;-67
2022/02/02 00:20:55;;;;;;;35.20;5.82;;;8.50;86.40;;;;;;9176509;19;20553;-67
2022/02/02 00:24:05;;;;;;;28.38;5.25;;;8.50;86.40;;;;;;9175880;19;20086;-68
2022/02/02 00:27:12;;;;;;;27.48;5.38;;;8.50;86.50;;;;;;9174292;19;20054;-67
2022/02/02 00:30:20;;;;;;;45.33;6.25;;;8.50;86.50;;;;;;9173545;19;20595;-67
2022/02/02 00:33:31;;;;;;;29.77;5.75;;;8.50;86.40;;;;;;9177005;19;20060;-68
2022/02/02 00:36:46;;;;;;;34.83;5.45;;;8.50;86.40;;;;;;9176283;19;20492;-67
2022/02/02 00:39:51;;;;;;;44.13;6.30;;;8.50;86.40;;;;;;9175237;19;20451;-68
2022/02/02 00:42:56;;;;;;;35.83;6.25;;;8.40;86.30;;;;;;9175712;19;20026;-67
2022/02/02 00:46:01;;;;;;;35.60;5.63;;;8.40;86.30;;;;;;9175360;19;20057;-68
2022/02/02 00:49:08;;;;;;;28.30;5.47;;;8.40;86.30;;;;;;9175609;19;20018;-67
2022/02/02 00:52:13;;;;;;;43.63;6.47;;;8.40;86.30;;;;;;9178137;19;20029;-68
2022/02/02 00:55:19;;;;;;;37.05;5.95;;;8.50;86.40;;;;;;9174722;19;20038;-68
2022/02/02 00:58:24;;;;;;;30.30;5.97;;;8.50;86.40;;;;;;9173815;19;20018;-67
2022/02/02 01:01:29;;;;;;;36.35;5.82;;;8.50;86.30;;;;;;9173879;19;20018;-67
2022/02/02 01:04:37;;;;;;;26.25;5.55;;;8.50;86.40;;;;;;9174343;19;20056;-67
2022/02/02 01:11:13;;;;;;;28.05;4.65;;;8.50;86.20;;;;;;9173214;19;20025;-68
2022/02/02 01:18:14;;;;;;;26.38;4.50;;;8.50;86.20;;;;;;9167849;19;20669;-67
2022/02/02 01:21:31;;;;;;;32.95;6.07;;;8.50;86.20;;;;;;9174696;19;20333;-68
2022/02/02 01:27:54;;;;;;;33.35;5.38;;;8.50;86.10;;;;;;9174791;19;20033;-67
2022/02/02 01:31:00;;;;;;;32.15;6.00;;;8.50;86.10;;;;;;9176019;19;20085;-68
2022/02/02 01:34:05;;;;;;;29.23;5.15;;;8.50;86.10;;;;;;9179496;19;20015;-67
2022/02/02 01:37:12;;;;;;;40.85;5.53;;;8.50;86.10;;;;;;9182387;19;20053;-68
2022/02/02 01:40:24;;;;;;;31.25;5.88;;;8.50;86.00;;;;;;9182949;19;20026;-67
2022/02/02 01:43:33;;;;;;;27.88;4.82;;;8.50;86.00;;;;;;9183196;19;20043;-68
2022/02/02 01:46:39;;;;;;;33.70;5.93;;;8.50;86.10;;;;;;9183618;19;20014;-67
2022/02/02 01:50:11;;;;;;;27.48;6.30;;;8.50;86.10;;;;;;9181503;19;20025;-67
2022/02/02 01:53:27;;;;;;;28.98;5.65;;;8.50;86.10;;;;;;9178609;19;20018;-70
2022/02/02 01:56:32;;;;;;;27.48;4.95;;;8.50;86.00;;;;;;9180640;19;20014;-67
2022/02/02 01:59:41;;;;;;;35.20;5.32;;;8.50;86.00;;;;;;9180659;19;20014;-67
2022/02/02 02:02:46;;;;;;;36.45;6.78;;;8.50;86.00;;;;;;9181733;19;20387;-68
2022/02/02 02:05:51;;;;;;;32.63;5.72;;;8.40;85.90;;;;;;9184196;19;20050;-67
2022/02/02 02:08:59;;;;;;;28.48;5.20;;;8.50;86.00;;;;;;9177480;19;20023;-68
2022/02/02 02:12:07;;;;;;;35.08;5.80;;;8.40;85.90;;;;;;9180139;19;20022;-68
2022/02/02 02:15:14;;;;;;;43.50;6.05;;;8.40;85.80;;;;;;9180715;19;20038;-67
2022/02/02 02:18:19;;;;;;;42.88;5.68;;;8.40;85.80;;;;;;9179143;19;20030;-67
2022/02/02 02:21:24;;;;;;;30.13;5.85;;;8.40;85.80;;;;;;9181747;19;20019;-68
2022/02/02 02:24:33;;;;;;;27.85;5.50;;;8.40;85.90;;;;;;9179131;19;20038;-67
2022/02/02 02:27:38;;;;;;;31.58;5.07;;;8.40;85.90;;;;;;9178884;19;20014;-67
2022/02/02 02:30:49;;;;;;;31.40;4.47;;;8.40;85.80;;;;;;9180184;19;20608;-67
2022/02/02 02:34:13;;;;;;;36.40;5.53;;;8.30;85.80;;;;;;9180990;19;20673;-67
2022/02/02 02:57:41;;;;;;;31.67;6.30;;;8.30;85.80;;;;;;9181291;19;20499;-67
2022/02/02 03:01:14;;;;;;;42.08;6.45;;;8.30;85.90;;;;;;9176644;19;20039;-67
2022/02/02 03:29:43;;;;;;;36.10;6.72;;;8.30;85.90;;;;;;9181042;19;20017;-67
2022/02/02 03:31:31;;;;;;;28.95;5.07;;;8.30;85.90;;;;;;9175007;19;20021;-68
2022/02/02 03:34:59;;;;;;;;;;;8.40;85.80;;;;;;9178590;19;20484;-67
2022/02/02 03:51:41;;;;;;;22.45;4.63;;;8.40;85.80;;;;;;9177641;19;20022;-67
2022/02/02 03:54:57;;;;;;;26.95;4.97;;;8.30;85.70;;;;;;9173118;19;20022;-67
2022/02/02 03:58:17;;;;;;;27.42;4.60;;;8.30;85.70;;;;;;9175492;19;20332;-67
2022/02/02 04:01:45;;;;;;;22.35;3.47;;;8.30;85.70;;;;;;9176605;19;20023;-67
2022/02/02 04:05:19;;;;;;;18.05;3.03;;;8.30;85.60;;;;;;9177138;19;20027;-67
2022/02/02 04:08:26;;;;;;;16.55;2.63;;;8.30;85.50;;;;;;9177833;19;20018;-67
2022/02/02 04:11:38;;;;;;;18.27;2.90;;;8.30;85.40;;;;;;9176085;19;20018;-67
2022/02/02 04:38:06;;;;;;;19.17;2.35;;;8.20;85.00;;;;;;9178588;19;20026;-68
2022/02/02 04:54:34;;;;;;;18.05;3.10;;;8.20;84.90;;;;;;9175525;19;20022;-68
2022/02/02 05:04:35;;;;;;;17.30;3.10;;;8.10;84.90;;;;;;9175557;19;20028;-67
2022/02/02 05:07:48;;;;;;;26.83;4.20;;;8.10;84.80;;;;;;9174001;19;20368;-68
2022/02/02 05:11:12;;;;;;;14.30;2.72;;;8.10;84.80;;;;;;9175175;19;20058;-67
2022/02/02 05:18:06;;;;;;;17.52;3.38;;;8.10;84.80;;;;;;9172236;19;20018;-68
2022/02/02 05:21:38;;;;;;;23.73;3.20;;;8.10;84.80;;;;;;9175688;19;20014;-68
2022/02/02 05:51:36;;;;;;;18.80;2.70;;;8.00;84.90;;;;;;9172641;19;20018;-67
2022/02/02 05:54:41;;;;;;;21.08;2.92;;;8.00;84.80;;;;;;9172446;19;20010;-68
2022/02/02 05:57:48;;;;;;;13.07;2.60;;;7.90;84.80;;;;;;9170653;19;20033;-68
2022/02/02 06:00:57;;;;;;;18.02;3.03;;;7.90;84.80;;;;;;9168593;19;20504;-68
2022/02/02 06:04:03;;;;;;;14.32;2.65;;;7.90;84.80;;;;;;9174902;19;20408;-67
2022/02/02 06:07:08;;;;;;;15.55;2.67;;;7.90;84.80;;;;;;9174622;19;20483;-67
2022/02/02 06:10:17;;;;;;;20.33;3.60;;;7.90;84.80;;;;;;9171326;19;20022;-66
2022/02/02 06:13:28;;;;;;;23.42;2.78;;;7.90;84.80;;;;;;9171835;19;20015;-66
2022/02/02 06:16:37;;;;;;;20.63;2.92;;;7.90;84.90;;;;;;9172345;19;20471;-66
2022/02/02 06:19:42;;;;;;;21.83;4.00;;;7.90;84.90;;;;;;9179721;19;20026;-67
2022/02/02 06:22:53;;;;;;;18.90;2.67;;;7.90;84.90;;;;;;9184328;19;20053;-66
2022/02/02 06:26:02;;;;;;;29.25;4.22;;;8.00;84.90;;;;;;9179645;19;20029;-66
2022/02/02 06:29:10;;;;;;;26.02;3.53;;;7.90;84.90;;;;;;9181345;19;20018;-66
2022/02/02 06:32:17;;;;;;;24.23;3.35;;;7.90;84.90;;;;;;9180193;19;20022;-66
2022/02/02 06:35:23;;;;;;;20.00;3.03;;;7.90;84.80;;;;;;9183829;19;20021;-66
2022/02/02 06:38:30;;;;;;;15.70;2.97;;;7.90;84.90;;;;;;9182818;19;20611;-67
2022/02/02 06:41:36;;;;;;;20.33;4.00;;;7.90;84.90;;;;;;9179859;19;20029;-67
2022/02/02 06:44:42;;;;;;;24.92;3.17;;;7.90;84.90;;;;;;9177191;19;20116;-66
2022/02/02 06:47:50;;;;;;;19.35;2.85;;;7.90;85.00;;;;;;9180541;19;20022;-66
2022/02/02 06:51:20;;;;;;;18.20;3.10;;;7.90;84.90;;;;;;9180576;19;20006;-66
2022/02/02 06:54:42;;;;;;;22.90;3.72;;;7.90;84.90;;;;;;9179751;19;20015;-66
2022/02/02 06:58:05;;;;;;;17.70;2.72;;;7.80;84.90;;;;;;9181875;19;20021;-67
2022/02/02 07:01:30;;;;;;;21.50;3.35;;;7.80;84.90;;;;;;9179205;19;20029;-66
2022/02/02 07:05:14;;;;;;;24.52;4.05;;;7.80;85.00;;;;;;9178236;19;20010;-66
2022/02/02 07:08:33;;;;;;;19.27;2.75;;;7.80;84.90;;;;;;9178676;19;20022;-66
2022/02/02 07:11:56;;;;;;;21.33;2.83;;;7.80;84.90;;;;;;9171416;19;20018;-66
2022/02/02 07:15:17;;;;;;;20.13;2.72;;;7.80;84.90;;;;;;9174918;19;20024;-66
2022/02/02 07:18:32;;;;;;;17.50;2.20;;;7.80;85.00;;;;;;9170300;19;20014;-67
2022/02/02 07:21:59;;;;;;;16.52;4.18;;;7.70;85.00;;;;;;9175534;19;20023;-66
2022/02/02 07:28:44;;;;;;;17.90;3.00;;;7.70;85.00;;;;;;9166845;19;20049;-66
2022/02/02 07:32:05;;;;;;;14.88;2.50;;;7.70;85.00;;;;;;9170127;19;20787;-66
2022/02/02 07:35:17;;;;;;;13.93;2.80;;;7.70;85.00;;;;;;9172214;19;20019;-66
2022/02/02 07:38:28;;;;;;;20.20;3.90;;;7.70;85.00;;;;;;9174205;19;20029;-66
2022/02/02 07:41:36;;;;;;;20.85;4.68;;;7.70;85.00;;;;;;9174580;19;20025;-66
2022/02/02 07:44:42;;;;;;;18.55;3.50;;;7.70;85.10;;;;;;9179398;19;20014;-67
2022/02/02 07:47:49;;;;;;;16.85;3.70;;;7.70;85.10;;;;;;9178485;19;20513;-67
2022/02/02 07:50:56;;;;;;;20.50;3.45;;;7.70;85.00;;;;;;9174561;19;20022;-67
2022/02/02 07:54:09;;;;;;;25.50;4.40;;;7.70;85.10;;;;;;9175591;19;20022;-67
2022/02/02 07:57:24;;;;;;;22.90;4.35;;;7.70;85.10;;;;;;9177129;19;20495;-66
2022/02/02 08:00:31;;;;;;;21.13;4.22;;;7.70;85.10;;;;;;9179385;19;20018;-67
2022/02/02 08:03:41;;;;;;;18.30;2.83;;;7.70;85.20;;;;;;9177018;19;20015;-72
2022/02/02 08:06:51;;;;;;;27.20;3.50;;;7.70;85.20;;;;;;9173691;19;20794;-66
2022/02/02 08:10:07;;;;;;;22.75;3.10;;;7.70;85.20;;;;;;9176182;19;20279;-66
2022/02/02 08:13:17;;;;;;;30.27;3.83;;;7.70;85.30;;;;;;9174297;19;20025;-66
2022/02/02 08:16:23;;;;;;;30.25;4.10;;;7.70;85.30;;;;;;9179596;19;20010;-72
2022/02/02 08:19:28;;;;;;;15.52;2.85;;;7.70;85.40;;;;;;9176857;19;20476;-73
2022/02/02 08:22:33;;;;;;;23.05;3.28;;;7.70;85.30;;;;;;9178080;19;20022;-68
2022/02/02 08:25:43;;;;;;;31.25;3.75;;;7.70;85.30;;;;;;9176856;19;20014;-67
2022/02/02 08:28:50;;;;;;;25.20;3.88;;;7.70;85.40;;;;;;9177083;19;20023;-66
2022/02/02 08:31:55;;;;;;;31.98;6.05;;;7.80;85.50;;;;;;9175764;19;20030;-66
2022/02/02 08:35:00;;;;;;;26.63;5.43;;;7.80;85.50;;;;;;9176735;19;20511;-66
2022/02/02 08:38:12;;;;;;;30.60;4.88;;;7.80;85.40;;;;;;9178460;19;20026;-66
2022/02/02 08:41:26;;;;;;;22.60;4.45;;;7.80;85.50;;;;;;9175288;19;20452;-66
2022/02/02 08:44:42;;;;;;;22.38;4.22;;;7.80;85.50;;;;;;9172484;19;20043;-67
2022/02/02 08:47:54;;;;;;;31.13;4.55;;;7.90;85.50;;;;;;9171409;19;20033;-66
2022/02/02 08:51:03;;;;;;;27.00;4.45;;;8.00;85.50;;;;;;9169715;19;20025;-67
2022/02/02 08:54:19;;;;;;;19.02;4.00;;;8.00;85.50;;;;;;9170692;19;20033;-67
2022/02/02 08:57:41;;;;;;;25.65;4.20;;;8.00;85.50;;;;;;9170108;19;20011;-67
2022/02/02 09:00:48;;;;;;;16.77;3.20;;;8.00;85.30;;;;;;9162818;19;20019;-66
2022/02/02 09:07:11;;;;;;;22.00;3.72;;;8.10;85.30;;;;;;9169672;19;20014;-66
2022/02/02 09:10:23;;;;;;;21.73;3.58;;;8.10;85.30;;;;;;9172801;19;20022;-66
2022/02/02 09:23:30;;;;;;;25.27;5.28;;;8.20;85.40;;;;;;9172427;19;20015;-66
2022/02/02 09:36:40;;;;;;;28.08;4.28;;;8.40;85.50;;;;;;9172344;19;20468;-67
2022/02/02 09:39:52;;;;;;;23.55;3.72;;;8.40;85.40;;;;;;9168404;19;20371;-67
2022/02/02 09:42:58;;;;;;;29.15;4.53;;;8.50;85.40;;;;;;9168501;19;20015;-66
2022/02/02 09:46:16;;;;;;;28.15;6.13;;;8.50;85.50;;;;;;9172638;19;20041;-66
2022/02/02 09:49:27;;;;;;;24.90;4.97;;;8.60;85.50;;;;;;9172736;19;20037;-66
2022/02/02 09:52:41;;;;;;;29.55;4.93;;;8.60;85.50;;;;;;9178245;19;20021;-66
2022/02/02 09:56:05;;;;;;;26.77;3.78;;;8.70;85.50;;;;;;9182654;19;20015;-66
2022/02/02 09:59:26;;;;;;;20.42;3.42;;;8.80;85.60;;;;;;9178598;19;20018;-66
2022/02/02 10:02:47;;;;;;;25.60;4.50;;;8.90;85.60;;;;;;9176922;19;20017;-66
2022/02/02 10:06:07;;;;;;;23.90;3.45;;;8.90;85.40;;;;;;9178866;19;20019;-66
2022/02/02 10:09:22;;;;;;;18.80;3.83;;;9.00;85.40;;;;;;9179343;19;20018;-66
2022/02/02 10:12:50;;;;;;;25.45;3.42;;;9.10;85.50;;;;;;9181946;19;20018;-66
2022/02/02 10:15:57;;;;;;;23.52;3.65;;;9.20;85.50;;;;;;9182515;19;20480;-66
2022/02/02 10:19:18;;;;;;;25.10;3.25;;;9.30;85.40;;;;;;9178695;19;20021;-66
2022/02/02 10:22:29;;;;;;;22.52;3.75;;;9.40;85.20;;;;;;9178848;19;20011;-66
2022/02/02 10:25:35;;;;;;;23.02;3.58;;;9.50;85.30;;;;;;9181776;19;20022;-66
2022/02/02 10:28:40;;;;;;;16.27;2.53;;;9.60;85.20;;;;;;9181581;19;20019;-66
2022/02/02 10:31:50;;;;;;;19.60;3.63;;;9.70;85.10;;;;;;9179800;19;20029;-66
2022/02/02 10:34:57;;;;;;;20.20;2.50;;;9.80;85.00;;;;;;9179404;19;20057;-66
2022/02/02 10:38:08;;;;;;;19.23;3.15;;;9.90;84.90;;;;;;9181385;19;20021;-66
2022/02/02 10:41:26;;;;;;;22.30;3.25;;;10.00;84.70;;;;;;9178663;19;20500;-66
2022/02/02 10:44:57;;;;;;;19.90;3.10;;;10.10;84.80;;;;;;9178388;19;20014;-66
2022/02/02 10:48:16;;;;;;;15.23;2.80;;;10.30;84.60;;;;;;9177275;19;20017;-66
2022/02/02 10:51:34;;;;;;;20.27;3.20;;;10.30;84.30;;;;;;9177677;19;20018;-66
2022/02/02 10:54:51;;;;;;;14.05;2.45;;;10.40;84.10;;;;;;9179080;19;20018;-66
2022/02/02 10:58:21;;;;;;;15.43;2.47;;;10.50;84.10;;;;;;9183509;19;20015;-66
2022/02/02 11:01:35;;;;;;;20.08;3.63;;;10.50;83.70;;;;;;9180833;19;20491;-66
2022/02/02 11:08:02;;;;;;;17.58;3.25;;;10.70;83.70;;;;;;9176703;19;20967;-66
2022/02/02 11:11:08;;;;;;;12.63;2.30;;;10.70;83.50;;;;;;9178065;19;20138;-66
2022/02/02 11:14:24;;;;;;;16.02;2.28;;;10.70;83.30;;;;;;9178487;19;20019;-66
2022/02/02 11:17:36;;;;;;;14.43;2.90;;;10.80;83.30;;;;;;9175018;19;20007;-65
2022/02/02 11:20:41;;;;;;;17.42;2.83;;;10.80;83.30;;;;;;9175559;19;20025;-65
2022/02/02 11:23:51;;;;;;;12.13;2.58;;;10.90;83.30;;;;;;9176310;19;20018;-65
2022/02/02 11:26:56;;;;;;;20.42;3.10;;;10.90;83.20;;;;;;9173821;19;20463;-66
2022/02/02 11:30:02;;;;;;;24.50;2.85;;;11.00;83.10;;;;;;9176425;19;20388;-66
2022/02/02 11:33:22;;;;;;;14.05;2.80;;;11.00;82.90;;;;;;9175529;19;20018;-67
2022/02/02 11:36:33;;;;;;;20.23;2.83;;;11.10;82.60;;;;;;9180340;19;20022;-66
2022/02/02 11:39:47;;;;;;;20.60;3.42;;;11.10;82.70;;;;;;9177071;19;20018;-66
2022/02/02 11:42:57;;;;;;;22.20;2.80;;;11.10;82.60;;;;;;9175471;19;20006;-66
2022/02/02 11:46:04;;;;;;;12.93;2.05;;;11.10;82.60;;;;;;9174667;19;20011;-66
2022/02/02 11:49:15;;;;;;;22.50;2.60;;;11.10;82.50;;;;;;9175276;19;20026;-65
2022/02/02 11:52:40;;;;;;;18.52;2.75;;;11.20;82.50;;;;;;9177531;19;20020;-66
2022/02/02 11:55:50;;;;;;;8.20;1.92;;;11.20;82.10;;;;;;9175777;19;20018;-66
2022/02/02 11:58:56;;;;;;;19.85;2.55;;;11.20;82.20;;;;;;9171175;19;20649;-66
2022/02/02 12:02:18;;;;;;;17.45;2.70;;;11.20;82.20;;;;;;9173615;19;20029;-66
2022/02/02 12:05:54;;;;;;;14.52;2.90;;;11.20;81.80;;;;;;9172694;19;20014;-66
2022/02/02 12:09:15;;;;;;;18.80;2.90;;;11.20;81.70;;;;;;9174305;19;20015;-65
2022/02/02 12:44:49;;;;;;;11.52;1.95;;;11.10;81.50;;;;;;9167305;19;20022;-66
2022/02/02 12:49:41;;;;;;;12.88;2.33;;;11.10;81.50;;;;;;9163741;19;20512;-66
2022/02/02 12:56:27;;;;;;;7.57;1.70;;;11.10;81.40;;;;;;9168466;19;20034;-65
2022/02/02 12:59:53;;;;;;;12.55;2.00;;;11.10;81.10;;;;;;9167632;19;20026;-66
2022/02/02 13:03:02;;;;;;;9.30;2.03;;;11.10;81.20;;;;;;9167293;19;20644;-65
2022/02/02 13:06:15;;;;;;;12.02;2.63;;;11.10;81.10;;;;;;9170071;19;20022;-66
2022/02/02 13:09:20;;;;;;;8.95;2.03;;;11.10;80.90;;;;;;9167335;19;20018;-66
2022/02/02 13:12:28;;;;;;;7.20;2.05;;;11.10;81.00;;;;;;9164764;19;20018;-66
2022/02/02 13:15:39;;;;;;;16.42;2.15;;;11.00;80.80;;;;;;9166907;19;20037;-66
2022/02/02 13:18:50;;;;;;;12.65;2.10;;;11.00;80.70;;;;;;9163607;19;20025;-66
2022/02/02 13:22:06;;;;;;;8.23;1.80;;;11.00;80.70;;;;;;9167991;19;20123;-65
2022/02/02 13:25:21;;;;;;;15.70;1.92;;;10.90;81.10;;;;;;9169499;19;20010;-65
2022/02/02 13:28:46;;;;;;;12.23;2.42;;;10.90;80.50;;;;;;9177156;19;20024;-65
2022/02/02 13:31:59;;;;;;;8.88;1.70;;;10.90;80.40;;;;;;9174502;19;20365;-66
2022/02/02 13:35:16;;;;;;;13.47;2.23;;;10.80;80.50;;;;;;9175704;19;20025;-66
2022/02/02 13:38:39;;;;;;;16.05;2.05;;;10.80;80.50;;;;;;9175725;19;20392;-66
2022/02/02 13:49:11;;;;;;;14.32;2.28;;;10.60;80.50;;;;;;9173085;19;20014;-66
2022/02/02 13:52:50;;;;;;;12.93;2.60;;;10.60;80.50;;;;;;9178102;19;20742;-65
2022/02/02 13:56:10;;;;;;;9.77;2.00;;;10.60;80.30;;;;;;9170469;19;20091;-67
2022/02/02 14:06:36;;;;;;;21.15;2.85;;;10.50;80.50;;;;;;9169389;19;20111;-65
2022/02/02 14:10:00;;;;;;;12.68;2.53;;;10.50;80.50;;;;;;9173797;19;20019;-65
2022/02/02 14:32:54;;;;;;;14.13;2.55;;;10.50;80.20;;;;;;9173494;19;20021;-65
2022/02/02 14:36:01;;;;;;;16.85;2.80;;;10.50;80.20;;;;;;9172329;19;20014;-65
2022/02/02 14:39:14;;;;;;;21.80;2.67;;;10.50;80.20;;;;;;9171638;19;20018;-65
2022/02/02 14:42:26;;;;;;;28.85;4.75;;;10.60;80.30;;;;;;9167395;19;20466;-65
2022/02/02 14:45:39;;;;;;;16.02;3.05;;;10.60;80.30;;;;;;9170689;19;20061;-65
2022/02/02 14:48:50;;;;;;;18.85;3.63;;;10.60;80.30;;;;;;9173645;19;20018;-65
2022/02/02 14:52:03;;;;;;;16.55;3.35;;;10.60;80.30;;;;;;9176032;19;20018;-65
2022/02/02 15:29:45;;;;;;;14.80;2.80;;;10.50;80.00;;;;;;9175070;19;20018;-65
2022/02/02 15:32:55;;;;;;;21.50;4.65;;;10.50;80.00;;;;;;9169938;19;20052;-65
2022/02/02 15:36:20;;;;;;;22.10;3.72;;;10.40;79.90;;;;;;9167371;19;20019;-65
2022/02/02 15:39:31;;;;;;;14.70;3.50;;;10.40;80.00;;;;;;9170330;19;20775;-65
2022/02/02 15:42:49;;;;;;;18.90;3.75;;;10.40;80.00;;;;;;9172630;19;20360;-65
2022/02/02 15:59:11;;;;;;;20.58;3.42;;;10.20;79.90;;;;;;9167569;19;20025;-65
2022/02/02 16:02:15;;;;;;;19.85;3.97;;;10.10;79.90;;;;;;9168751;19;20373;-65
2022/02/02 16:05:28;;;;;;;20.42;4.07;;;10.10;80.00;;;;;;9173265;19;20018;-65
2022/02/02 16:09:00;;;;;;;25.92;3.83;;;10.00;79.80;;;;;;9171349;19;20019;-65
2022/02/02 16:12:12;;;;;;;24.10;3.57;;;10.00;80.00;;;;;;9170161;19;20022;-65
2022/02/02 16:15:23;;;;;;;21.48;4.55;;;9.90;79.90;;;;;;9167208;19;20744;-64
2022/02/02 16:18:38;;;;;;;23.95;3.75;;;9.90;79.90;;;;;;9162483;19;20498;-66
2022/02/02 16:25:15;;;;;;;26.98;4.93;;;9.80;79.80;;;;;;9168848;19;20025;-65
2022/02/02 16:31:52;;;;;;;16.13;3.00;;;9.70;79.90;;;;;;9171331;19;20015;-64
2022/02/02 16:38:26;;;;;;;15.57;3.08;;;9.60;79.90;;;;;;9163762;19;20388;-65
2022/02/02 16:44:50;;;;;;;29.65;3.88;;;9.50;79.90;;;;;;9165069;19;20018;-65
2022/02/02 16:47:55;;;;;;;20.92;4.68;;;9.50;80.00;;;;;;9169951;19;20026;-65
2022/02/02 16:51:04;;;;;;;24.33;3.78;;;9.40;80.00;;;;;;9169515;19;20591;-65
2022/02/02 16:54:19;;;;;;;26.45;4.18;;;9.40;80.00;;;;;;9168546;19;20022;-65
2022/02/02 16:57:37;;;;;;;23.13;4.00;;;9.30;79.90;;;;;;9168251;19;20079;-65
2022/02/02 17:30:41;;;;;;;19.70;3.95;;;8.80;80.10;;;;;;9166070;19;20106;-65
2022/02/02 17:33:52;;;;;;;19.08;3.70;;;8.80;80.10;;;;;;9170849;19;20022;-64
2022/02/02 17:37:06;;;;;;;20.02;3.78;;;8.70;80.20;;;;;;9165659;19;20123;-65
2022/02/02 17:40:16;;;;;;;;;;;8.70;80.10;;;;;;9166454;19;20022;-65
2022/02/02 18:20:18;;;;;;;22.00;3.50;;;8.00;80.30;;;;;;9173341;19;20424;-65
2022/02/02 18:23:28;;;;;;;15.75;3.20;;;7.90;80.30;;;;;;9171077;19;20015;-65
2022/02/02 18:26:38;;;;;;;17.25;3.40;;;7.90;80.40;;;;;;9170800;19;20014;-65
2022/02/02 18:29:53;;;;;;;15.70;3.17;;;7.80;80.40;;;;;;9172411;19;20018;-65
2022/02/02 18:33:17;;;;;;;16.33;3.40;;;7.80;80.40;;;;;;9173405;19;20022;-65
2022/02/02 18:36:40;;;;;;;25.42;4.68;;;7.70;80.40;;;;;;9172772;19;20022;-65
2022/02/02 18:43:35;;;;;;;18.55;3.40;;;7.60;80.50;;;;;;9173486;19;20086;-65
2022/02/02 18:50:11;;;;;;;25.10;3.35;;;7.50;80.50;;;;;;9170750;19;20018;-65
2022/02/02 18:56:50;;;;;;;20.95;3.88;;;7.40;80.50;;;;;;9170673;19;20039;-65
2022/02/02 19:00:11;;;;;;;24.15;4.35;;;7.40;80.60;;;;;;9174830;19;20045;-65
2022/02/02 19:40:13;;;;;;;22.42;4.32;;;7.00;81.00;;;;;;9168625;19;20053;-65
2022/02/02 19:54:11;;;;;;;25.33;5.55;;;6.90;81.10;;;;;;9173881;19;20022;-65
2022/02/02 19:56:59;;;;;;;26.10;5.93;;;6.90;81.20;;;;;;9172232;19;20919;-66
2022/02/02 20:06:49;;;;;;;19.23;4.10;;;6.90;81.30;;;;;;9165293;19;20018;-65
2022/02/02 20:10:01;;;;;;;21.23;4.47;;;6.90;81.40;;;;;;9168845;19;20026;-65
2022/02/02 20:13:08;;;;;;;16.60;4.50;;;6.90;81.40;;;;;;9171793;19;20029;-66
2022/02/02 20:16:13;;;;;;;17.58;4.18;;;6.90;81.40;;;;;;9170783;19;20376;-66
2022/02/02 20:19:19;;;;;;;22.83;3.90;;;6.90;81.50;;;;;;9163919;19;20023;-67
2022/02/02 20:22:28;;;;;;;16.85;4.15;;;6.90;81.50;;;;;;9168652;19;20021;-65
2022/02/02 20:25:35;;;;;;;21.45;4.25;;;6.90;81.50;;;;;;9168700;19;20011;-66
2022/02/02 20:28:43;;;;;;;20.00;4.07;;;6.90;81.50;;;;;;9169279;19;20022;-66
2022/02/02 20:31:48;;;;;;;17.73;4.95;;;6.90;81.60;;;;;;9166697;19;20026;-66
2022/02/02 20:34:53;;;;;;;30.70;5.45;;;6.90;81.60;;;;;;9167457;19;20026;-66
2022/02/02 20:37:59;;;;;;;18.67;4.00;;;7.00;81.60;;;;;;9168740;19;20014;-66
2022/02/02 20:41:05;;;;;;;22.05;4.00;;;6.90;81.60;;;;;;9170160;19;20022;-66
2022/02/02 20:44:22;;;;;;;28.88;5.13;;;6.90;81.60;;;;;;9169197;19;20026;-67
2022/02/02 21:01:15;;;;;;;16.83;3.75;;;7.00;81.80;;;;;;9171334;19;20074;-66
2022/02/02 21:08:04;;;;;;;23.00;4.47;;;7.10;81.90;;;;;;9175559;19;20022;-66
2022/02/02 21:11:18;;;;;;;24.17;4.55;;;7.10;81.90;;;;;;9176860;19;20026;-66
2022/02/02 21:14:23;;;;;;;23.33;4.00;;;7.10;81.90;;;;;;9176313;19;20014;-66
2022/02/02 21:17:33;;;;;;;20.90;4.45;;;7.20;82.00;;;;;;9169148;19;20583;-66
2022/02/02 21:20:50;;;;;;;21.40;4.78;;;7.20;82.00;;;;;;9173994;19;21040;-66
2022/02/02 21:24:34;;;;;;;22.58;4.60;;;7.20;82.10;;;;;;9172320;19;20019;-66
2022/02/02 21:27:41;;;;;;;25.20;5.57;;;7.30;82.10;;;;;;9171832;19;20019;-67
2022/02/02 21:30:47;;;;;;;28.63;5.05;;;7.30;82.20;;;;;;9173308;19;20013;-65
2022/02/02 21:33:55;;;;;;;29.17;5.22;;;7.30;82.20;;;;;;9173477;19;20361;-66
2022/02/02 21:37:04;;;;;;;26.63;5.43;;;7.30;82.30;;;;;;9171319;19;20909;-65
2022/02/02 21:40:21;;;;;;;32.90;6.05;;;7.40;82.40;;;;;;9172420;19;20018;-66
2022/02/02 21:43:30;;;;;;;27.15;5.93;;;7.40;82.50;;;;;;9172914;19;20021;-66
2022/02/02 21:46:36;;;;;;;22.42;5.60;;;7.40;82.50;;;;;;9172840;19;20021;-66
2022/02/02 21:49:46;;;;;;;27.00;5.72;;;7.50;82.50;;;;;;9180702;19;20094;-66
2022/02/02 21:52:53;;;;;;;23.40;5.93;;;7.50;82.60;;;;;;9180296;19;20501;-66
2022/02/02 21:55:58;;;;;;;21.35;8.35;;;7.50;82.60;;;;;;9181551;19;20014;-66
2022/02/02 21:59:04;;;;;;;29.02;6.85;;;7.60;82.70;;;;;;9180810;19;20337;-66
2022/02/02 22:02:10;;;;;;;25.45;6.00;;;7.60;82.70;;;;;;9182894;19;20501;-66
2022/02/02 22:05:17;;;;;;;26.15;6.63;;;7.60;82.80;;;;;;9181906;19;20018;-66
2022/02/02 22:08:22;;;;;;;29.63;8.55;;;7.70;82.90;;;;;;9179731;19;20484;-66
2022/02/02 22:11:27;;;;;;;31.52;7.97;;;7.70;82.90;;;;;;9180296;19;20357;-65
2022/02/02 22:14:33;;;;;;;27.88;8.48;;;7.70;83.00;;;;;;9180636;19;20011;-66
2022/02/02 22:17:38;;;;;;;33.45;10.02;;;7.80;83.10;;;;;;9178651;19;20041;-66
2022/02/02 22:20:46;;;;;;;25.20;9.43;;;7.80;83.10;;;;;;9181875;19;20022;-66
2022/02/02 22:23:51;;;;;;;34.55;10.30;;;7.80;83.30;;;;;;9177781;19;20905;-66
2022/02/02 22:26:56;;;;;;;28.73;9.27;;;7.80;83.20;;;;;;9181027;19;20059;-67
2022/02/02 22:30:03;;;;;;;33.67;10.35;;;7.80;83.30;;;;;;9182211;19;20015;-66
2022/02/02 22:33:08;;;;;;;34.58;10.13;;;7.90;83.50;;;;;;9183006;19;20033;-66
2022/02/02 22:36:17;;;;;;;29.88;9.98;;;7.90;83.50;;;;;;9184392;19;20025;-66
2022/02/02 22:39:22;;;;;;;30.05;11.60;;;7.90;83.50;;;;;;9181205;19;20023;-67
2022/02/02 22:42:28;;;;;;;35.60;11.57;;;8.00;83.60;;;;;;9180191;19;20014;-66
2022/02/02 22:45:34;;;;;;;32.17;11.60;;;8.00;83.60;;;;;;9180466;19;20725;-66
2022/02/02 22:48:40;;;;;;;37.95;13.02;;;8.00;83.60;;;;;;9179169;19;20373;-66
2022/02/02 22:51:48;;;;;;;36.80;13.25;;;8.10;83.80;;;;;;9183279;19;20029;-67
2022/02/02 22:54:53;;;;;;;34.78;12.35;;;8.10;83.90;;;;;;9178203;19;20026;-67
2022/02/02 22:57:58;;;;;;;32.08;12.38;;;8.10;83.90;;;;;;9178177;19;20025;-66
2022/02/02 23:01:03;;;;;;;32.28;14.13;;;8.10;84.00;;;;;;9179664;19;20021;-68
2022/02/02 23:04:09;;;;;;;31.70;12.98;;;8.20;84.00;;;;;;9181650;19;20018;-67
2022/02/02 23:07:17;;;;;;;34.20;13.82;;;8.20;84.10;;;;;;9180078;19;20014;-66
2022/02/02 23:10:22;;;;;;;30.75;14.88;;;8.30;84.30;;;;;;9177173;19;20022;-66
2022/02/02 23:13:28;;;;;;;35.60;14.60;;;8.30;84.30;;;;;;9178424;19;20033;-66
2022/02/02 23:16:38;;;;;;;31.13;14.93;;;8.30;84.40;;;;;;9180956;19;20018;-67
2022/02/02 23:19:46;;;;;;;31.55;14.13;;;8.40;84.50;;;;;;9176213;19;20029;-66
2022/02/02 23:22:54;;;;;;;43.42;15.25;;;8.40;84.50;;;;;;9182694;19;20021;-65
2022/02/02 23:26:02;;;;;;;30.25;15.07;;;8.40;84.60;;;;;;9176456;19;20019;-66
2022/02/02 23:29:08;;;;;;;33.20;16.20;;;8.50;84.60;;;;;;9176521;19;20027;-66
2022/02/02 23:32:16;;;;;;;30.90;16.10;;;8.50;84.70;;;;;;9179802;19;20018;-66
2022/02/02 23:35:21;;;;;;;34.08;15.98;;;8.60;84.80;;;;;;9180147;19;20018;-66
2022/02/02 23:38:29;;;;;;;34.33;17.30;;;8.60;84.80;;;;;;9180111;19;20506;-67
2022/02/02 23:44:56;;;;;;;31.52;16.30;;;8.60;84.80;;;;;;9179415;19;20052;-66
2022/02/02 23:48:03;;;;;;;34.90;17.05;;;8.70;85.00;;;;;;9177025;19;20022;-66
2022/02/02 23:51:09;;;;;;;31.85;15.55;;;8.70;85.00;;;;;;9181211;19;20014;-66
2022/02/02 23:54:19;;;;;;;32.45;16.02;;;8.70;85.10;;;;;;9179463;19;20038;-67
2022/02/02 23:57:40;;;;;;;31.00;15.95;;;8.80;85.30;;;;;;9179652;19;20472;-67
